sensor_id;sensor_type;location;lat;lon;timestamp;P1;durP1;ratioP1;P2;durP2;ratioP2
5967;SDS011;3010;51.028;4.170;2022-10-31T00:01:51;24.33;;;14.00;;
5967;SDS011;3010;51.028;4.170;2022-10-31T00:04:18;18.20;;;13.57;;
5967;SDS011;3010;51.028;4.170;2022-10-31T00:06:44;19.50;;;14.17;;
5967;SDS011;3010;51.028;4.170;2022-10-31T00:09:11;20.63;;;14.63;;
5967;SDS011;3010;51.028;4.170;2022-10-31T00:11:37;22.60;;;15.00;;
5967;SDS011;3010;51.028;4.170;2022-10-31T00:14:04;24.20;;;14.20;;
5967;SDS011;3010;51.028;4.170;2022-10-31T00:16:31;16.80;;;14.37;;
5967;SDS011;3010;51.028;4.170;2022-10-31T00:18:58;21.70;;;13.60;;
5967;SDS011;3010;51.028;4.170;2022-10-31T00:21:24;19.37;;;13.30;;
5967;SDS011;3010;51.028;4.170;2022-10-31T00:23:50;22.07;;;13.80;;
5967;SDS011;3010;51.028;4.170;2022-10-31T00:26:17;22.03;;;15.00;;
5967;SDS011;3010;51.028;4.170;2022-10-31T00:28:44;20.13;;;14.13;;
5967;SDS011;3010;51.028;4.170;2022-10-31T00:31:11;24.63;;;13.07;;
5967;SDS011;3010;51.028;4.170;2022-10-31T00:33:37;20.00;;;13.60;;
5967;SDS011;3010;51.028;4.170;2022-10-31T00:36:04;22.97;;;13.77;;
5967;SDS011;3010;51.028;4.170;2022-10-31T00:38:30;20.83;;;14.33;;
5967;SDS011;3010;51.028;4.170;2022-10-31T00:40:57;18.87;;;13.97;;
5967;SDS011;3010;51.028;4.170;2022-10-31T00:43:23;23.53;;;14.40;;
5967;SDS011;3010;51.028;4.170;2022-10-31T00:45:50;22.58;;;16.58;;
5967;SDS011;3010;51.028;4.170;2022-10-31T00:48:16;19.63;;;14.10;;
5967;SDS011;3010;51.028;4.170;2022-10-31T00:50:43;17.17;;;13.10;;
5967;SDS011;3010;51.028;4.170;2022-10-31T00:53:10;20.33;;;13.67;;
5967;SDS011;3010;51.028;4.170;2022-10-31T00:55:39;23.00;;;13.67;;
5967;SDS011;3010;51.028;4.170;2022-10-31T00:58:06;23.13;;;13.87;;
5967;SDS011;3010;51.028;4.170;2022-10-31T01:00:32;20.07;;;12.97;;
5967;SDS011;3010;51.028;4.170;2022-10-31T01:02:59;18.50;;;12.90;;
5967;SDS011;3010;51.028;4.170;2022-10-31T01:05:25;22.13;;;14.43;;
5967;SDS011;3010;51.028;4.170;2022-10-31T01:07:52;22.40;;;14.20;;
5967;SDS011;3010;51.028;4.170;2022-10-31T01:10:18;16.63;;;12.47;;
5967;SDS011;3010;51.028;4.170;2022-10-31T01:12:46;22.77;;;12.27;;
5967;SDS011;3010;51.028;4.170;2022-10-31T01:15:13;20.43;;;13.37;;
5967;SDS011;3010;51.028;4.170;2022-10-31T01:17:38;17.37;;;13.30;;
5967;SDS011;3010;51.028;4.170;2022-10-31T01:20:05;20.23;;;14.37;;
5967;SDS011;3010;51.028;4.170;2022-10-31T01:22:31;22.13;;;13.20;;
5967;SDS011;3010;51.028;4.170;2022-10-31T01:24:58;21.33;;;13.83;;
5967;SDS011;3010;51.028;4.170;2022-10-31T01:27:25;20.47;;;13.80;;
5967;SDS011;3010;51.028;4.170;2022-10-31T01:29:51;19.43;;;13.50;;
5967;SDS011;3010;51.028;4.170;2022-10-31T01:32:18;19.73;;;12.17;;
5967;SDS011;3010;51.028;4.170;2022-10-31T01:34:44;15.60;;;12.00;;
5967;SDS011;3010;51.028;4.170;2022-10-31T01:37:12;19.30;;;12.93;;
5967;SDS011;3010;51.028;4.170;2022-10-31T01:39:37;18.20;;;12.67;;
5967;SDS011;3010;51.028;4.170;2022-10-31T01:42:04;21.73;;;12.73;;
5967;SDS011;3010;51.028;4.170;2022-10-31T01:47:07;20.33;;;12.93;;
5967;SDS011;3010;51.028;4.170;2022-10-31T01:52:24;21.87;;;13.23;;
5967;SDS011;3010;51.028;4.170;2022-10-31T01:55:00;22.43;;;14.17;;
5967;SDS011;3010;51.028;4.170;2022-10-31T01:57:31;20.00;;;12.80;;
5967;SDS011;3010;51.028;4.170;2022-10-31T01:59:59;25.00;;;14.47;;
5967;SDS011;3010;51.028;4.170;2022-10-31T02:02:24;23.07;;;13.47;;
5967;SDS011;3010;51.028;4.170;2022-10-31T02:04:51;21.27;;;13.13;;
5967;SDS011;3010;51.028;4.170;2022-10-31T02:07:18;22.57;;;15.60;;
5967;SDS011;3010;51.028;4.170;2022-10-31T02:09:47;24.55;;;16.98;;
5967;SDS011;3010;51.028;4.170;2022-10-31T02:12:13;21.63;;;14.40;;
5967;SDS011;3010;51.028;4.170;2022-10-31T02:14:40;21.83;;;13.30;;
5967;SDS011;3010;51.028;4.170;2022-10-31T02:17:06;24.10;;;14.00;;
5967;SDS011;3010;51.028;4.170;2022-10-31T02:19:35;24.00;;;15.77;;
5967;SDS011;3010;51.028;4.170;2022-10-31T02:22:05;19.80;;;13.73;;
5967;SDS011;3010;51.028;4.170;2022-10-31T02:27:10;22.80;;;13.20;;
5967;SDS011;3010;51.028;4.170;2022-10-31T02:29:47;19.83;;;12.77;;
5967;SDS011;3010;51.028;4.170;2022-10-31T02:34:48;19.20;;;14.63;;
5967;SDS011;3010;51.028;4.170;2022-10-31T02:37:29;20.70;;;14.10;;
5967;SDS011;3010;51.028;4.170;2022-10-31T02:42:36;19.27;;;12.87;;
5967;SDS011;3010;51.028;4.170;2022-10-31T02:45:01;23.67;;;12.90;;
5967;SDS011;3010;51.028;4.170;2022-10-31T02:47:27;18.27;;;12.70;;
5967;SDS011;3010;51.028;4.170;2022-10-31T02:49:54;18.83;;;12.53;;
5967;SDS011;3010;51.028;4.170;2022-10-31T02:54:55;21.37;;;14.23;;
5967;SDS011;3010;51.028;4.170;2022-10-31T02:57:23;19.80;;;13.23;;
5967;SDS011;3010;51.028;4.170;2022-10-31T02:59:53;20.20;;;12.57;;
5967;SDS011;3010;51.028;4.170;2022-10-31T03:02:23;20.03;;;15.93;;
5967;SDS011;3010;51.028;4.170;2022-10-31T03:10:20;20.90;;;13.37;;
5967;SDS011;3010;51.028;4.170;2022-10-31T03:13:13;25.13;;;16.40;;
5967;SDS011;3010;51.028;4.170;2022-10-31T03:15:43;21.37;;;13.53;;
5967;SDS011;3010;51.028;4.170;2022-10-31T03:18:17;21.63;;;12.77;;
5967;SDS011;3010;51.028;4.170;2022-10-31T03:21:11;19.40;;;11.80;;
5967;SDS011;3010;51.028;4.170;2022-10-31T03:23:39;18.70;;;12.93;;
5967;SDS011;3010;51.028;4.170;2022-10-31T03:26:06;18.40;;;13.60;;
5967;SDS011;3010;51.028;4.170;2022-10-31T03:28:36;21.17;;;13.53;;
5967;SDS011;3010;51.028;4.170;2022-10-31T03:31:01;19.60;;;13.27;;
5967;SDS011;3010;51.028;4.170;2022-10-31T03:33:28;27.57;;;17.77;;
5967;SDS011;3010;51.028;4.170;2022-10-31T03:35:55;25.80;;;14.73;;
5967;SDS011;3010;51.028;4.170;2022-10-31T03:38:21;24.30;;;13.50;;
5967;SDS011;3010;51.028;4.170;2022-10-31T03:40:48;23.47;;;13.70;;
5967;SDS011;3010;51.028;4.170;2022-10-31T03:43:16;20.67;;;13.57;;
5967;SDS011;3010;51.028;4.170;2022-10-31T03:45:41;21.30;;;13.73;;
5967;SDS011;3010;51.028;4.170;2022-10-31T03:48:07;22.83;;;13.77;;
5967;SDS011;3010;51.028;4.170;2022-10-31T03:50:44;25.10;;;14.17;;
5967;SDS011;3010;51.028;4.170;2022-10-31T03:53:11;23.90;;;13.77;;
5967;SDS011;3010;51.028;4.170;2022-10-31T03:55:43;18.97;;;11.83;;
5967;SDS011;3010;51.028;4.170;2022-10-31T03:58:18;18.03;;;12.97;;
5967;SDS011;3010;51.028;4.170;2022-10-31T04:00:39;20.87;;;12.97;;
5967;SDS011;3010;51.028;4.170;2022-10-31T04:03:09;20.93;;;11.93;;
5967;SDS011;3010;51.028;4.170;2022-10-31T04:05:34;21.63;;;12.13;;
5967;SDS011;3010;51.028;4.170;2022-10-31T04:08:00;22.30;;;12.63;;
5967;SDS011;3010;51.028;4.170;2022-10-31T04:10:27;23.57;;;16.40;;
5967;SDS011;3010;51.028;4.170;2022-10-31T04:12:57;23.25;;;15.63;;
5967;SDS011;3010;51.028;4.170;2022-10-31T04:15:20;20.12;;;14.20;;
5967;SDS011;3010;51.028;4.170;2022-10-31T04:17:47;19.20;;;11.93;;
5967;SDS011;3010;51.028;4.170;2022-10-31T04:20:16;17.80;;;11.90;;
5967;SDS011;3010;51.028;4.170;2022-10-31T04:22:42;20.37;;;14.57;;
5967;SDS011;3010;51.028;4.170;2022-10-31T04:25:09;18.93;;;12.43;;
5967;SDS011;3010;51.028;4.170;2022-10-31T04:27:36;19.47;;;12.67;;
5967;SDS011;3010;51.028;4.170;2022-10-31T04:30:02;16.13;;;11.30;;
5967;SDS011;3010;51.028;4.170;2022-10-31T04:32:29;16.13;;;11.77;;
5967;SDS011;3010;51.028;4.170;2022-10-31T04:34:55;16.77;;;12.00;;
5967;SDS011;3010;51.028;4.170;2022-10-31T04:37:22;15.40;;;10.83;;
5967;SDS011;3010;51.028;4.170;2022-10-31T04:39:49;20.63;;;12.60;;
5967;SDS011;3010;51.028;4.170;2022-10-31T04:42:15;21.40;;;11.80;;
5967;SDS011;3010;51.028;4.170;2022-10-31T04:44:42;15.60;;;11.70;;
5967;SDS011;3010;51.028;4.170;2022-10-31T04:47:08;16.70;;;10.93;;
5967;SDS011;3010;51.028;4.170;2022-10-31T04:49:35;14.60;;;10.20;;
5967;SDS011;3010;51.028;4.170;2022-10-31T04:52:01;12.13;;;10.60;;
5967;SDS011;3010;51.028;4.170;2022-10-31T04:54:28;12.47;;;10.67;;
5967;SDS011;3010;51.028;4.170;2022-10-31T04:56:55;15.97;;;12.10;;
5967;SDS011;3010;51.028;4.170;2022-10-31T04:59:21;20.87;;;17.57;;
5967;SDS011;3010;51.028;4.170;2022-10-31T05:01:48;41.53;;;31.60;;
5967;SDS011;3010;51.028;4.170;2022-10-31T05:04:14;46.83;;;32.57;;
5967;SDS011;3010;51.028;4.170;2022-10-31T05:06:41;27.37;;;20.70;;
5967;SDS011;3010;51.028;4.170;2022-10-31T05:09:08;25.53;;;17.17;;
5967;SDS011;3010;51.028;4.170;2022-10-31T05:11:34;18.17;;;13.00;;
5967;SDS011;3010;51.028;4.170;2022-10-31T05:14:01;19.43;;;12.13;;
5967;SDS011;3010;51.028;4.170;2022-10-31T05:16:27;19.97;;;12.10;;
5967;SDS011;3010;51.028;4.170;2022-10-31T05:18:54;17.73;;;11.67;;
5967;SDS011;3010;51.028;4.170;2022-10-31T05:21:20;14.87;;;10.60;;
5967;SDS011;3010;51.028;4.170;2022-10-31T05:23:47;17.33;;;11.07;;
5967;SDS011;3010;51.028;4.170;2022-10-31T05:26:14;14.80;;;11.17;;
5967;SDS011;3010;51.028;4.170;2022-10-31T05:28:40;18.63;;;11.97;;
5967;SDS011;3010;51.028;4.170;2022-10-31T05:31:07;18.63;;;12.43;;
5967;SDS011;3010;51.028;4.170;2022-10-31T05:33:33;24.03;;;14.97;;
5967;SDS011;3010;51.028;4.170;2022-10-31T05:36:00;23.87;;;15.27;;
5967;SDS011;3010;51.028;4.170;2022-10-31T05:38:27;20.83;;;13.27;;
5967;SDS011;3010;51.028;4.170;2022-10-31T05:40:56;21.17;;;14.80;;
5967;SDS011;3010;51.028;4.170;2022-10-31T05:43:26;28.65;;;19.62;;
5967;SDS011;3010;51.028;4.170;2022-10-31T05:45:53;35.08;;;22.48;;
5967;SDS011;3010;51.028;4.170;2022-10-31T05:48:19;32.67;;;18.53;;
5967;SDS011;3010;51.028;4.170;2022-10-31T05:50:46;39.35;;;23.52;;
5967;SDS011;3010;51.028;4.170;2022-10-31T05:53:12;24.90;;;17.50;;
5967;SDS011;3010;51.028;4.170;2022-10-31T05:55:39;24.87;;;15.13;;
5967;SDS011;3010;51.028;4.170;2022-10-31T05:58:08;19.97;;;14.00;;
5967;SDS011;3010;51.028;4.170;2022-10-31T06:00:35;24.73;;;15.20;;
5967;SDS011;3010;51.028;4.170;2022-10-31T06:03:02;25.77;;;14.10;;
5967;SDS011;3010;51.028;4.170;2022-10-31T06:05:28;28.73;;;15.83;;
5967;SDS011;3010;51.028;4.170;2022-10-31T06:07:55;22.87;;;14.87;;
5967;SDS011;3010;51.028;4.170;2022-10-31T06:10:21;27.17;;;15.90;;
5967;SDS011;3010;51.028;4.170;2022-10-31T06:12:48;21.50;;;14.73;;
5967;SDS011;3010;51.028;4.170;2022-10-31T06:15:14;27.57;;;15.60;;
5967;SDS011;3010;51.028;4.170;2022-10-31T06:17:41;24.10;;;15.33;;
5967;SDS011;3010;51.028;4.170;2022-10-31T06:20:07;29.63;;;16.40;;
5967;SDS011;3010;51.028;4.170;2022-10-31T06:22:34;24.77;;;16.50;;
5967;SDS011;3010;51.028;4.170;2022-10-31T06:25:01;29.73;;;16.93;;
5967;SDS011;3010;51.028;4.170;2022-10-31T06:27:27;33.17;;;17.70;;
5967;SDS011;3010;51.028;4.170;2022-10-31T06:29:54;34.23;;;18.37;;
5967;SDS011;3010;51.028;4.170;2022-10-31T06:32:20;31.40;;;18.80;;
5967;SDS011;3010;51.028;4.170;2022-10-31T06:34:47;44.17;;;24.75;;
5967;SDS011;3010;51.028;4.170;2022-10-31T06:37:14;40.53;;;20.23;;
5967;SDS011;3010;51.028;4.170;2022-10-31T06:39:40;38.53;;;20.00;;
5967;SDS011;3010;51.028;4.170;2022-10-31T06:42:07;30.50;;;17.77;;
5967;SDS011;3010;51.028;4.170;2022-10-31T06:44:33;36.67;;;19.20;;
5967;SDS011;3010;51.028;4.170;2022-10-31T06:47:00;33.67;;;19.30;;
5967;SDS011;3010;51.028;4.170;2022-10-31T06:49:26;30.13;;;18.57;;
5967;SDS011;3010;51.028;4.170;2022-10-31T06:51:53;33.37;;;18.37;;
5967;SDS011;3010;51.028;4.170;2022-10-31T06:54:20;30.87;;;18.47;;
5967;SDS011;3010;51.028;4.170;2022-10-31T06:56:46;110.03;;;63.13;;
5967;SDS011;3010;51.028;4.170;2022-10-31T06:59:13;155.63;;;93.60;;
5967;SDS011;3010;51.028;4.170;2022-10-31T07:01:39;145.20;;;87.97;;
5967;SDS011;3010;51.028;4.170;2022-10-31T07:04:09;153.60;;;88.07;;
5967;SDS011;3010;51.028;4.170;2022-10-31T07:06:33;123.93;;;81.53;;
5967;SDS011;3010;51.028;4.170;2022-10-31T07:08:59;121.33;;;78.97;;
5967;SDS011;3010;51.028;4.170;2022-10-31T07:11:26;96.33;;;59.47;;
5967;SDS011;3010;51.028;4.170;2022-10-31T07:13:52;77.00;;;47.50;;
5967;SDS011;3010;51.028;4.170;2022-10-31T07:16:19;52.83;;;33.47;;
5967;SDS011;3010;51.028;4.170;2022-10-31T07:18:45;44.90;;;27.90;;
5967;SDS011;3010;51.028;4.170;2022-10-31T07:21:12;39.70;;;25.07;;
5967;SDS011;3010;51.028;4.170;2022-10-31T07:23:39;39.37;;;26.10;;
5967;SDS011;3010;51.028;4.170;2022-10-31T07:26:05;86.97;;;54.83;;
5967;SDS011;3010;51.028;4.170;2022-10-31T07:28:32;74.33;;;47.53;;
5967;SDS011;3010;51.028;4.170;2022-10-31T07:30:58;55.17;;;34.20;;
5967;SDS011;3010;51.028;4.170;2022-10-31T07:33:25;49.37;;;33.70;;
5967;SDS011;3010;51.028;4.170;2022-10-31T07:35:52;46.27;;;27.70;;
5967;SDS011;3010;51.028;4.170;2022-10-31T07:38:18;41.03;;;25.80;;
5967;SDS011;3010;51.028;4.170;2022-10-31T07:40:51;39.75;;;26.25;;
5967;SDS011;3010;51.028;4.170;2022-10-31T07:43:18;33.33;;;21.47;;
5967;SDS011;3010;51.028;4.170;2022-10-31T07:45:54;28.90;;;19.70;;
5967;SDS011;3010;51.028;4.170;2022-10-31T07:48:17;31.67;;;20.00;;
5967;SDS011;3010;51.028;4.170;2022-10-31T07:50:44;33.73;;;22.67;;
5967;SDS011;3010;51.028;4.170;2022-10-31T07:53:11;44.97;;;32.27;;
5967;SDS011;3010;51.028;4.170;2022-10-31T07:55:37;42.67;;;28.80;;
5967;SDS011;3010;51.028;4.170;2022-10-31T07:58:04;45.65;;;33.47;;
5967;SDS011;3010;51.028;4.170;2022-10-31T08:00:36;39.57;;;27.37;;
5967;SDS011;3010;51.028;4.170;2022-10-31T08:03:03;42.00;;;26.57;;
5967;SDS011;3010;51.028;4.170;2022-10-31T08:05:29;35.70;;;22.40;;
5967;SDS011;3010;51.028;4.170;2022-10-31T08:07:56;28.30;;;18.57;;
5967;SDS011;3010;51.028;4.170;2022-10-31T08:10:23;30.20;;;20.57;;
5967;SDS011;3010;51.028;4.170;2022-10-31T08:12:56;29.23;;;17.43;;
5967;SDS011;3010;51.028;4.170;2022-10-31T08:15:25;24.00;;;16.77;;
5967;SDS011;3010;51.028;4.170;2022-10-31T08:17:51;27.37;;;16.60;;
5967;SDS011;3010;51.028;4.170;2022-10-31T08:20:18;26.77;;;16.40;;
5967;SDS011;3010;51.028;4.170;2022-10-31T08:22:52;24.10;;;16.00;;
5967;SDS011;3010;51.028;4.170;2022-10-31T08:25:19;25.97;;;16.27;;
5967;SDS011;3010;51.028;4.170;2022-10-31T08:27:52;25.20;;;17.33;;
5967;SDS011;3010;51.028;4.170;2022-10-31T08:30:19;28.80;;;16.83;;
5967;SDS011;3010;51.028;4.170;2022-10-31T08:32:45;29.00;;;18.03;;
5967;SDS011;3010;51.028;4.170;2022-10-31T08:35:11;24.90;;;17.33;;
5967;SDS011;3010;51.028;4.170;2022-10-31T08:37:38;26.57;;;17.40;;
5967;SDS011;3010;51.028;4.170;2022-10-31T08:40:05;24.70;;;17.53;;
5967;SDS011;3010;51.028;4.170;2022-10-31T08:42:31;24.57;;;18.37;;
5967;SDS011;3010;51.028;4.170;2022-10-31T08:44:58;26.70;;;18.23;;
5967;SDS011;3010;51.028;4.170;2022-10-31T08:47:24;36.97;;;18.80;;
5967;SDS011;3010;51.028;4.170;2022-10-31T08:49:51;28.33;;;17.87;;
5967;SDS011;3010;51.028;4.170;2022-10-31T08:52:18;30.33;;;19.53;;
5967;SDS011;3010;51.028;4.170;2022-10-31T08:54:44;26.87;;;18.30;;
5967;SDS011;3010;51.028;4.170;2022-10-31T08:57:11;31.83;;;21.83;;
5967;SDS011;3010;51.028;4.170;2022-10-31T08:59:37;28.27;;;19.50;;
5967;SDS011;3010;51.028;4.170;2022-10-31T09:02:04;30.80;;;22.40;;
5967;SDS011;3010;51.028;4.170;2022-10-31T09:04:31;28.73;;;20.20;;
5967;SDS011;3010;51.028;4.170;2022-10-31T09:06:57;28.33;;;18.13;;
5967;SDS011;3010;51.028;4.170;2022-10-31T09:09:24;26.07;;;17.97;;
5967;SDS011;3010;51.028;4.170;2022-10-31T09:11:50;27.33;;;18.23;;
5967;SDS011;3010;51.028;4.170;2022-10-31T09:14:17;35.27;;;22.20;;
5967;SDS011;3010;51.028;4.170;2022-10-31T09:16:44;30.10;;;19.77;;
5967;SDS011;3010;51.028;4.170;2022-10-31T09:19:10;32.77;;;18.90;;
5967;SDS011;3010;51.028;4.170;2022-10-31T09:21:37;28.20;;;18.73;;
5967;SDS011;3010;51.028;4.170;2022-10-31T09:24:03;32.43;;;20.17;;
5967;SDS011;3010;51.028;4.170;2022-10-31T09:26:30;31.13;;;21.07;;
5967;SDS011;3010;51.028;4.170;2022-10-31T09:28:57;28.80;;;21.23;;
5967;SDS011;3010;51.028;4.170;2022-10-31T09:31:23;36.77;;;24.73;;
5967;SDS011;3010;51.028;4.170;2022-10-31T09:33:52;37.03;;;21.50;;
5967;SDS011;3010;51.028;4.170;2022-10-31T09:36:16;33.07;;;21.33;;
5967;SDS011;3010;51.028;4.170;2022-10-31T09:38:43;35.20;;;21.27;;
5967;SDS011;3010;51.028;4.170;2022-10-31T09:41:16;33.17;;;21.67;;
5967;SDS011;3010;51.028;4.170;2022-10-31T09:46:22;43.67;;;22.27;;
5967;SDS011;3010;51.028;4.170;2022-10-31T09:51:30;32.20;;;20.33;;
5967;SDS011;3010;51.028;4.170;2022-10-31T09:56:40;34.80;;;22.23;;
5967;SDS011;3010;51.028;4.170;2022-10-31T09:59:11;36.43;;;21.63;;
5967;SDS011;3010;51.028;4.170;2022-10-31T10:01:45;38.23;;;21.47;;
5967;SDS011;3010;51.028;4.170;2022-10-31T10:06:54;39.28;;;26.60;;
5967;SDS011;3010;51.028;4.170;2022-10-31T10:09:24;36.00;;;23.17;;
5967;SDS011;3010;51.028;4.170;2022-10-31T10:14:42;31.80;;;21.50;;
5967;SDS011;3010;51.028;4.170;2022-10-31T10:20:10;33.00;;;20.00;;
5967;SDS011;3010;51.028;4.170;2022-10-31T10:25:14;34.87;;;20.90;;
5967;SDS011;3010;51.028;4.170;2022-10-31T10:30:30;29.57;;;19.37;;
5967;SDS011;3010;51.028;4.170;2022-10-31T10:33:00;27.20;;;19.87;;
5967;SDS011;3010;51.028;4.170;2022-10-31T10:35:27;26.07;;;19.33;;
5967;SDS011;3010;51.028;4.170;2022-10-31T10:38:09;28.00;;;20.13;;
5967;SDS011;3010;51.028;4.170;2022-10-31T10:40:36;22.83;;;18.50;;
5967;SDS011;3010;51.028;4.170;2022-10-31T10:46:26;30.87;;;18.67;;
5967;SDS011;3010;51.028;4.170;2022-10-31T10:51:50;26.00;;;19.23;;
5967;SDS011;3010;51.028;4.170;2022-10-31T10:57:13;26.50;;;18.23;;
5967;SDS011;3010;51.028;4.170;2022-10-31T10:59:48;26.67;;;18.73;;
5967;SDS011;3010;51.028;4.170;2022-10-31T11:02:19;24.67;;;18.03;;
5967;SDS011;3010;51.028;4.170;2022-10-31T11:04:45;26.17;;;17.97;;
5967;SDS011;3010;51.028;4.170;2022-10-31T11:07:11;25.80;;;18.50;;
5967;SDS011;3010;51.028;4.170;2022-10-31T11:09:38;23.03;;;17.10;;
5967;SDS011;3010;51.028;4.170;2022-10-31T11:12:15;28.37;;;19.40;;
5967;SDS011;3010;51.028;4.170;2022-10-31T11:14:50;25.57;;;18.67;;
5967;SDS011;3010;51.028;4.170;2022-10-31T11:22:40;23.30;;;17.43;;
5967;SDS011;3010;51.028;4.170;2022-10-31T11:25:21;23.13;;;17.27;;
5967;SDS011;3010;51.028;4.170;2022-10-31T11:27:58;26.10;;;17.50;;
5967;SDS011;3010;51.028;4.170;2022-10-31T11:30:14;23.33;;;16.87;;
5967;SDS011;3010;51.028;4.170;2022-10-31T11:32:42;27.50;;;17.63;;
5967;SDS011;3010;51.028;4.170;2022-10-31T11:35:10;22.63;;;17.37;;
5967;SDS011;3010;51.028;4.170;2022-10-31T11:37:40;25.33;;;18.60;;
5967;SDS011;3010;51.028;4.170;2022-10-31T11:40:04;23.00;;;18.10;;
5967;SDS011;3010;51.028;4.170;2022-10-31T11:42:34;23.83;;;16.73;;
5967;SDS011;3010;51.028;4.170;2022-10-31T11:44:56;23.90;;;17.40;;
5967;SDS011;3010;51.028;4.170;2022-10-31T11:47:26;25.47;;;17.50;;
5967;SDS011;3010;51.028;4.170;2022-10-31T11:49:49;20.23;;;16.23;;
5967;SDS011;3010;51.028;4.170;2022-10-31T11:52:20;22.63;;;16.87;;
5967;SDS011;3010;51.028;4.170;2022-10-31T11:54:46;23.27;;;17.20;;
5967;SDS011;3010;51.028;4.170;2022-10-31T11:57:26;25.53;;;17.23;;
5967;SDS011;3010;51.028;4.170;2022-10-31T11:59:56;24.15;;;19.00;;
5967;SDS011;3010;51.028;4.170;2022-10-31T12:02:22;26.30;;;17.20;;
5967;SDS011;3010;51.028;4.170;2022-10-31T12:04:51;24.20;;;17.00;;
5967;SDS011;3010;51.028;4.170;2022-10-31T12:07:15;23.23;;;17.13;;
5967;SDS011;3010;51.028;4.170;2022-10-31T12:09:42;24.20;;;17.10;;
5967;SDS011;3010;51.028;4.170;2022-10-31T12:12:10;23.97;;;16.67;;
5967;SDS011;3010;51.028;4.170;2022-10-31T12:14:54;22.30;;;17.03;;
5967;SDS011;3010;51.028;4.170;2022-10-31T12:17:21;22.30;;;17.20;;
5967;SDS011;3010;51.028;4.170;2022-10-31T12:24:51;23.17;;;15.60;;
5967;SDS011;3010;51.028;4.170;2022-10-31T12:27:18;22.47;;;15.63;;
5967;SDS011;3010;51.028;4.170;2022-10-31T12:40:46;23.47;;;16.60;;
5967;SDS011;3010;51.028;4.170;2022-10-31T12:43:35;23.07;;;16.70;;
5967;SDS011;3010;51.028;4.170;2022-10-31T12:45:59;23.47;;;16.30;;
5967;SDS011;3010;51.028;4.170;2022-10-31T12:51:23;23.27;;;17.08;;
5967;SDS011;3010;51.028;4.170;2022-10-31T13:01:36;19.70;;;14.33;;
5967;SDS011;3010;51.028;4.170;2022-10-31T13:04:16;18.00;;;14.53;;
5967;SDS011;3010;51.028;4.170;2022-10-31T13:06:48;22.50;;;15.57;;
5967;SDS011;3010;51.028;4.170;2022-10-31T13:09:12;20.67;;;14.33;;
5967;SDS011;3010;51.028;4.170;2022-10-31T13:11:43;21.93;;;14.20;;
5967;SDS011;3010;51.028;4.170;2022-10-31T13:14:14;19.00;;;13.20;;
5967;SDS011;3010;51.028;4.170;2022-10-31T13:16:56;19.43;;;13.57;;
5967;SDS011;3010;51.028;4.170;2022-10-31T13:19:24;20.10;;;13.30;;
5967;SDS011;3010;51.028;4.170;2022-10-31T13:21:54;20.73;;;12.30;;
5967;SDS011;3010;51.028;4.170;2022-10-31T13:24:21;18.43;;;13.20;;
5967;SDS011;3010;51.028;4.170;2022-10-31T13:26:49;21.45;;;14.23;;
5967;SDS011;3010;51.028;4.170;2022-10-31T13:29:18;18.83;;;12.90;;
5967;SDS011;3010;51.028;4.170;2022-10-31T13:31:46;19.83;;;12.90;;
5967;SDS011;3010;51.028;4.170;2022-10-31T13:34:25;20.00;;;12.37;;
5967;SDS011;3010;51.028;4.170;2022-10-31T13:36:51;21.17;;;13.27;;
5967;SDS011;3010;51.028;4.170;2022-10-31T13:42:14;19.13;;;12.30;;
5967;SDS011;3010;51.028;4.170;2022-10-31T13:44:38;19.90;;;12.30;;
5967;SDS011;3010;51.028;4.170;2022-10-31T13:47:27;21.77;;;11.93;;
5967;SDS011;3010;51.028;4.170;2022-10-31T13:49:46;15.07;;;12.40;;
5967;SDS011;3010;51.028;4.170;2022-10-31T13:54:46;17.00;;;11.37;;
5967;SDS011;3010;51.028;4.170;2022-10-31T13:57:18;20.70;;;11.90;;
5967;SDS011;3010;51.028;4.170;2022-10-31T13:59:50;17.90;;;11.30;;
5967;SDS011;3010;51.028;4.170;2022-10-31T14:02:14;13.13;;;10.37;;
5967;SDS011;3010;51.028;4.170;2022-10-31T14:04:50;15.50;;;10.40;;
5967;SDS011;3010;51.028;4.170;2022-10-31T14:07:19;17.47;;;10.57;;
5967;SDS011;3010;51.028;4.170;2022-10-31T14:09:51;17.20;;;9.53;;
5967;SDS011;3010;51.028;4.170;2022-10-31T14:12:37;15.77;;;10.40;;
5967;SDS011;3010;51.028;4.170;2022-10-31T14:15:18;16.33;;;9.43;;
5967;SDS011;3010;51.028;4.170;2022-10-31T14:22:42;14.93;;;9.23;;
5967;SDS011;3010;51.028;4.170;2022-10-31T14:25:30;17.33;;;10.10;;
5967;SDS011;3010;51.028;4.170;2022-10-31T14:28:02;15.97;;;9.30;;
5967;SDS011;3010;51.028;4.170;2022-10-31T14:30:28;14.73;;;9.07;;
5967;SDS011;3010;51.028;4.170;2022-10-31T14:32:57;12.00;;;8.23;;
5967;SDS011;3010;51.028;4.170;2022-10-31T14:35:21;16.17;;;8.90;;
5967;SDS011;3010;51.028;4.170;2022-10-31T14:37:53;14.23;;;8.83;;
5967;SDS011;3010;51.028;4.170;2022-10-31T14:40:20;12.13;;;9.13;;
5967;SDS011;3010;51.028;4.170;2022-10-31T14:45:36;13.33;;;8.33;;
5967;SDS011;3010;51.028;4.170;2022-10-31T14:48:50;13.93;;;8.90;;
5967;SDS011;3010;51.028;4.170;2022-10-31T14:53:12;12.83;;;8.50;;
5967;SDS011;3010;51.028;4.170;2022-10-31T14:55:35;13.10;;;8.20;;
5967;SDS011;3010;51.028;4.170;2022-10-31T14:58:03;19.92;;;9.75;;
5967;SDS011;3010;51.028;4.170;2022-10-31T15:00:28;13.40;;;8.20;;
5967;SDS011;3010;51.028;4.170;2022-10-31T15:05:31;12.83;;;8.30;;
5967;SDS011;3010;51.028;4.170;2022-10-31T15:07:58;13.73;;;8.80;;
5967;SDS011;3010;51.028;4.170;2022-10-31T15:10:26;11.90;;;8.63;;
5967;SDS011;3010;51.028;4.170;2022-10-31T15:12:51;15.90;;;9.20;;
5967;SDS011;3010;51.028;4.170;2022-10-31T15:15:22;12.95;;;9.27;;
5967;SDS011;3010;51.028;4.170;2022-10-31T15:17:52;17.00;;;9.50;;
5967;SDS011;3010;51.028;4.170;2022-10-31T15:20:21;15.07;;;8.87;;
5967;SDS011;3010;51.028;4.170;2022-10-31T15:22:47;13.30;;;8.87;;
5967;SDS011;3010;51.028;4.170;2022-10-31T15:25:20;11.20;;;9.10;;
5967;SDS011;3010;51.028;4.170;2022-10-31T15:27:50;14.20;;;8.63;;
5967;SDS011;3010;51.028;4.170;2022-10-31T15:30:17;14.32;;;9.65;;
5967;SDS011;3010;51.028;4.170;2022-10-31T15:32:45;17.27;;;8.93;;
5967;SDS011;3010;51.028;4.170;2022-10-31T15:35:19;12.95;;;9.18;;
5967;SDS011;3010;51.028;4.170;2022-10-31T15:37:38;12.43;;;8.70;;
5967;SDS011;3010;51.028;4.170;2022-10-31T15:40:14;14.27;;;9.25;;
5967;SDS011;3010;51.028;4.170;2022-10-31T15:42:41;13.53;;;8.27;;
5967;SDS011;3010;51.028;4.170;2022-10-31T15:47:36;12.47;;;8.97;;
5967;SDS011;3010;51.028;4.170;2022-10-31T15:50:05;21.73;;;8.97;;
5967;SDS011;3010;51.028;4.170;2022-10-31T15:55:03;16.87;;;9.23;;
5967;SDS011;3010;51.028;4.170;2022-10-31T15:57:25;17.13;;;8.93;;
5967;SDS011;3010;51.028;4.170;2022-10-31T15:59:52;15.53;;;9.13;;
5967;SDS011;3010;51.028;4.170;2022-10-31T16:02:23;16.87;;;9.20;;
5967;SDS011;3010;51.028;4.170;2022-10-31T16:04:49;15.57;;;9.27;;
5967;SDS011;3010;51.028;4.170;2022-10-31T16:07:15;15.70;;;9.17;;
5967;SDS011;3010;51.028;4.170;2022-10-31T16:12:17;17.87;;;9.87;;
5967;SDS011;3010;51.028;4.170;2022-10-31T16:14:43;17.83;;;10.10;;
5967;SDS011;3010;51.028;4.170;2022-10-31T16:17:11;19.13;;;9.23;;
5967;SDS011;3010;51.028;4.170;2022-10-31T16:19:37;14.17;;;9.67;;
5967;SDS011;3010;51.028;4.170;2022-10-31T16:22:05;13.73;;;9.40;;
5967;SDS011;3010;51.028;4.170;2022-10-31T16:24:34;17.37;;;9.70;;
5967;SDS011;3010;51.028;4.170;2022-10-31T16:27:02;15.37;;;9.97;;
5967;SDS011;3010;51.028;4.170;2022-10-31T16:29:45;16.27;;;9.80;;
5967;SDS011;3010;51.028;4.170;2022-10-31T16:37:37;26.03;;;12.03;;
5967;SDS011;3010;51.028;4.170;2022-10-31T16:40:03;18.80;;;11.67;;
5967;SDS011;3010;51.028;4.170;2022-10-31T16:42:30;21.77;;;11.00;;
5967;SDS011;3010;51.028;4.170;2022-10-31T16:44:56;18.60;;;11.17;;
5967;SDS011;3010;51.028;4.170;2022-10-31T16:47:23;20.97;;;11.47;;
5967;SDS011;3010;51.028;4.170;2022-10-31T16:49:50;20.30;;;11.30;;